首页
METAR-TAF:

METAR-TAF

机场 :

Oakland County International Airport

Pontiac, 密歇根州, 美国

纬度: 42-39-47N, 经度: 083-24-36W, 海拔: 299米

当前天气观测

该预报发布于48分钟前的16:53 UTC
风速8节,风向东转东南
温度 -1°C
湿度 64%
气压 1024 hPa
能見度: 16.1公里
多云层高于9000英尺
多云层高于25000英尺

METAR: KPTK 171653Z 11008KT 10SM BKN090 BKN250 M01/M07 A3024 RMK AO2 SLP251 T10111067

时间: 12:41 (17:41 UTC)

预报

该预报发布于21分钟前的17:20 UTC
预报有效从17日的 18点(UTC)到 18日的 18点(UTC)
风速10节,风向东转东南
能見度: 10公里
多云层高于8000英尺
阴天层高于12000英尺
从 18日的 0200点(UTC)
风速8节,风向东转东南
能見度: 3.2公里
散云层高于1800英尺
阴天层高于4000英尺
小雪
从 18日的 0500点(UTC)
风速6节,风向东转东南
能見度: 4.8公里
阴天层高于800英尺
小雨, 轻雾
从 18日的 0800点(UTC)
风速6节,风向南转南东
能見度: 3.2公里
阴天层高于400英尺
小毛毛雨, 轻雾
从 18日的 1100点(UTC)
风速10节,风向西转西南,有时为18节阵风
能見度: 10公里
阴天层高于1200英尺
从 18日的 1500点(UTC)
风速14节,风向西,有时为24节阵风
能見度: 10公里
阴天层高于1800英尺

TAF: KPTK 171720Z 1718/1818 11010KT P6SM BKN080 OVC120 FM180200 12008KT 2SM -SN SCT018 OVC040 FM180500 12006KT 3SM -RA BR OVC008 FM180800 15006KT 2SM -DZ BR OVC004 FM181100 24010G18KT P6SM OVC012 FM181500 28014G24KT P6SM OVC018

超过4000个机场的气象观测和天气预报(METAR&TAF报告)。

可查询的气象台以黄色和红色小点在地图上表示。

将鼠标移到小点上方,可查看气象台名称。

然后点击查看天气观测和预报。

如需切换地图:点击带黑十字的绿色按钮放大地图;点击带横线的绿色按钮缩小地图;或者点击绿色箭头查看邻近地区的地图。


METAR-TAF: